Terminal Aerodrome Forecast
Issued by NWS

Home | Current Version | Previous Version | Text Only | Print | Product List | Glossary On
Versions: 1 2 3 4 5 6 7 8 9 10 11 12
000
FTUS44 KOUN 251139
TAFCSM
TAF
KCSM 251139Z 2512/2612 34016G25KT P6SM BKN025
     FM251800 33014KT P6SM SCT035
     FM252300 VRB04KT P6SM SCT250
     FM260700 14008KT P6SM BKN250=

USA.gov is the U.S. government's official web portal to all federal, state and local government web resources and services.